createdAt,value
2023-05-16T00:01:49.734Z,13.60
2023-05-16T00:04:17.668Z,13.60
2023-05-16T00:06:44.602Z,13.50
2023-05-16T00:09:11.355Z,13.50
2023-05-16T00:11:38.171Z,13.50
2023-05-16T00:14:05.229Z,13.60
2023-05-16T00:16:31.975Z,13.60
2023-05-16T00:18:59.786Z,13.50
2023-05-16T00:21:26.662Z,13.60
2023-05-16T00:23:53.383Z,13.70
2023-05-16T00:26:20.686Z,13.60
2023-05-16T00:28:47.805Z,13.60
2023-05-16T00:31:14.567Z,13.40
2023-05-16T00:33:41.309Z,13.50
2023-05-16T00:36:08.334Z,13.40
2023-05-16T00:38:35.215Z,13.50
2023-05-16T00:41:01.892Z,13.40
2023-05-16T00:43:29.160Z,13.50
2023-05-16T00:45:57.806Z,13.40
2023-05-16T00:48:25.087Z,13.40
2023-05-16T00:50:52.821Z,13.40
2023-05-16T00:53:20.354Z,13.40
2023-05-16T00:55:47.828Z,13.30
2023-05-16T00:58:14.774Z,13.30
2023-05-16T01:00:41.804Z,13.40
2023-05-16T01:03:08.767Z,13.40
2023-05-16T01:05:35.694Z,13.90
2023-05-16T01:08:02.369Z,13.50
2023-05-16T01:10:50.001Z,13.40
2023-05-16T01:13:30.689Z,13.50
2023-05-16T01:16:16.238Z,13.50
2023-05-16T01:18:59.841Z,13.40
2023-05-16T01:21:50.160Z,14.30
2023-05-16T01:24:34.963Z,13.30
2023-05-16T01:27:04.830Z,13.20
2023-05-16T01:29:33.529Z,13.20
2023-05-16T01:32:00.510Z,13.10
2023-05-16T01:34:27.294Z,13.00
2023-05-16T01:37:26.785Z,13.80
2023-05-16T01:40:06.007Z,13.00
2023-05-16T01:42:39.518Z,13.10
2023-05-16T01:45:09.993Z,13.00
2023-05-16T01:47:42.258Z,13.20
2023-05-16T01:50:15.474Z,13.20
2023-05-16T01:52:52.045Z,13.20
2023-05-16T01:55:39.193Z,13.20
2023-05-16T01:58:08.393Z,13.10
2023-05-16T02:00:35.337Z,13.20
2023-05-16T02:03:02.584Z,13.00
2023-05-16T02:05:29.638Z,13.00
2023-05-16T02:07:59.039Z,12.90
2023-05-16T02:10:26.576Z,12.80
2023-05-16T02:12:53.754Z,12.80
2023-05-16T02:15:21.250Z,12.80
2023-05-16T02:17:48.881Z,12.80
2023-05-16T02:20:16.934Z,12.80
2023-05-16T02:22:44.203Z,12.90
2023-05-16T02:25:11.151Z,12.90
2023-05-16T02:27:37.912Z,12.90
2023-05-16T02:30:05.531Z,12.90
2023-05-16T02:32:33.884Z,12.80
2023-05-16T02:35:00.734Z,12.80
2023-05-16T02:37:27.477Z,12.70
2023-05-16T02:39:54.328Z,12.70
2023-05-16T02:42:21.123Z,12.70
2023-05-16T02:44:47.911Z,12.70
2023-05-16T02:47:14.652Z,12.70
2023-05-16T02:49:41.331Z,13.50
2023-05-16T02:52:08.075Z,12.80
2023-05-16T02:54:35.264Z,12.80
2023-05-16T02:57:01.977Z,12.80
2023-05-16T02:59:28.715Z,12.70
2023-05-16T03:01:55.558Z,12.80
2023-05-16T03:04:23.616Z,12.80
2023-05-16T03:06:51.164Z,12.70
2023-05-16T03:09:17.952Z,12.70
2023-05-16T03:11:45.245Z,12.70
2023-05-16T03:14:12.246Z,12.80
2023-05-16T03:16:40.138Z,12.80
2023-05-16T03:19:07.411Z,12.80
2023-05-16T03:21:34.242Z,12.70
2023-05-16T03:24:04.040Z,12.80
2023-05-16T03:26:30.958Z,12.80
2023-05-16T03:28:57.794Z,12.80
2023-05-16T03:31:24.709Z,12.80
2023-05-16T03:33:51.592Z,12.70
2023-05-16T03:36:18.309Z,12.80
2023-05-16T03:38:45.220Z,12.70
2023-05-16T03:41:12.160Z,12.70
2023-05-16T03:43:39.107Z,12.70
2023-05-16T03:46:06.032Z,12.80
2023-05-16T03:48:32.770Z,12.70
2023-05-16T03:50:59.463Z,12.70
2023-05-16T03:53:26.192Z,12.70
2023-05-16T03:55:52.898Z,12.60
2023-05-16T03:58:19.657Z,12.80
2023-05-16T04:00:46.855Z,13.50
2023-05-16T04:03:13.780Z,12.70
2023-05-16T04:05:40.614Z,12.60
2023-05-16T04:08:07.380Z,12.60
2023-05-16T04:10:34.160Z,12.70
2023-05-16T04:13:00.978Z,12.60
2023-05-16T04:15:27.965Z,12.60
2023-05-16T04:17:55.105Z,12.70
2023-05-16T04:20:21.864Z,12.60
2023-05-16T04:22:48.813Z,12.70
2023-05-16T04:25:15.786Z,12.70
2023-05-16T04:27:42.981Z,12.70
2023-05-16T04:30:11.294Z,12.80
2023-05-16T04:32:38.235Z,12.80
2023-05-16T04:35:05.537Z,12.80
2023-05-16T04:37:32.239Z,12.90
2023-05-16T04:39:59.130Z,12.80
2023-05-16T04:42:25.906Z,12.70
2023-05-16T04:44:52.663Z,12.80
2023-05-16T04:47:19.502Z,12.80
2023-05-16T04:49:46.464Z,12.80
2023-05-16T04:52:13.143Z,12.80
2023-05-16T04:54:39.930Z,12.80
2023-05-16T04:57:06.675Z,12.80
2023-05-16T04:59:33.542Z,12.80
2023-05-16T05:02:00.287Z,12.80
2023-05-16T05:04:27.118Z,12.80
2023-05-16T05:06:54.281Z,12.90
2023-05-16T05:09:21.273Z,12.90
2023-05-16T05:11:48.037Z,12.80
2023-05-16T05:14:14.741Z,12.90
2023-05-16T05:16:41.490Z,13.00
2023-05-16T05:19:09.071Z,13.00
2023-05-16T05:21:36.019Z,13.00
2023-05-16T05:24:02.742Z,13.00
2023-05-16T05:26:29.728Z,13.10
2023-05-16T05:29:04.746Z,13.20
2023-05-16T05:31:33.828Z,13.20
2023-05-16T05:34:00.964Z,13.30
2023-05-16T05:36:27.679Z,13.30
2023-05-16T05:38:54.414Z,13.40
2023-05-16T05:41:22.352Z,13.90
2023-05-16T05:43:49.448Z,13.40
2023-05-16T05:46:17.300Z,13.40
2023-05-16T05:48:44.268Z,13.50
2023-05-16T05:51:11.261Z,13.60
2023-05-16T05:53:38.028Z,13.50
2023-05-16T05:56:05.075Z,13.60
2023-05-16T05:58:31.990Z,13.70
2023-05-16T06:00:58.773Z,14.20
2023-05-16T06:03:25.745Z,13.70
2023-05-16T06:05:52.493Z,13.80
2023-05-16T06:08:19.262Z,13.80
2023-05-16T06:10:46.089Z,13.90
2023-05-16T06:13:12.799Z,13.90
2023-05-16T06:15:39.532Z,14.00
2023-05-16T06:18:06.411Z,14.20
2023-05-16T06:20:33.268Z,14.10
2023-05-16T06:22:59.989Z,14.10
2023-05-16T06:25:26.848Z,14.10
2023-05-16T06:27:53.752Z,14.20
2023-05-16T06:30:20.508Z,14.20
2023-05-16T06:32:47.248Z,14.30
2023-05-16T06:35:13.982Z,14.40
2023-05-16T06:37:42.684Z,14.30
2023-05-16T06:40:10.544Z,14.40
2023-05-16T06:42:37.714Z,14.40
2023-05-16T06:45:06.061Z,14.30
2023-05-16T06:47:32.832Z,14.30
2023-05-16T06:49:59.611Z,14.40
2023-05-16T06:52:26.595Z,14.30
2023-05-16T06:54:53.403Z,14.50
2023-05-16T06:57:20.509Z,14.70
2023-05-16T06:59:47.206Z,14.70
2023-05-16T07:02:14.011Z,14.70
2023-05-16T07:04:40.802Z,14.60
2023-05-16T07:07:10.584Z,14.70
2023-05-16T07:09:37.410Z,14.80
2023-05-16T07:12:04.467Z,15.00
2023-05-16T07:14:31.197Z,15.20
2023-05-16T07:16:57.995Z,15.10
2023-05-16T07:19:25.039Z,15.20
2023-05-16T07:21:51.813Z,15.40
2023-05-16T07:24:18.582Z,15.40
2023-05-16T07:26:45.376Z,15.50
2023-05-16T07:29:12.407Z,15.60
2023-05-16T07:31:39.328Z,15.60
2023-05-16T07:34:06.513Z,15.30
2023-05-16T07:36:35.220Z,15.10
2023-05-16T07:39:02.127Z,15.20
2023-05-16T07:41:30.126Z,15.10
2023-05-16T07:43:56.929Z,15.20
2023-05-16T07:46:23.905Z,15.30
2023-05-16T07:48:51.043Z,15.60
2023-05-16T07:51:17.752Z,15.60
2023-05-16T07:53:44.518Z,15.70
2023-05-16T07:56:11.400Z,15.80
2023-05-16T07:58:38.795Z,15.90
2023-05-16T08:01:05.737Z,15.80
2023-05-16T08:03:32.760Z,15.70
2023-05-16T08:05:59.663Z,15.20
2023-05-16T08:08:26.514Z,14.80
2023-05-16T08:10:53.264Z,14.30
2023-05-16T08:13:20.050Z,14.20
2023-05-16T08:15:47.302Z,14.00
2023-05-16T08:18:15.400Z,13.90
2023-05-16T08:20:42.733Z,13.80
2023-05-16T08:23:09.739Z,13.90
2023-05-16T08:25:36.631Z,14.30
2023-05-16T08:28:03.489Z,14.50
2023-05-16T08:30:30.411Z,14.60
2023-05-16T08:32:57.275Z,14.80
2023-05-16T08:35:24.077Z,15.10
2023-05-16T08:37:51.050Z,16.20
2023-05-16T08:40:19.376Z,15.80
2023-05-16T08:42:46.284Z,16.20
2023-05-16T08:45:13.668Z,16.50
2023-05-16T08:47:42.560Z,16.80
2023-05-16T08:50:10.646Z,17.30
2023-05-16T08:52:40.348Z,16.60
2023-05-16T08:55:11.436Z,16.10
2023-05-16T08:57:40.195Z,16.00
2023-05-16T09:00:11.547Z,16.60
2023-05-16T09:02:40.082Z,15.60
2023-05-16T09:05:09.825Z,15.70
2023-05-16T09:07:37.053Z,15.80
2023-05-16T09:10:05.768Z,16.00
2023-05-16T09:12:35.693Z,16.30
2023-05-16T09:15:03.814Z,16.30
2023-05-16T09:17:40.059Z,16.60
2023-05-16T09:20:12.188Z,16.50
2023-05-16T09:22:39.909Z,16.70
2023-05-16T09:25:12.595Z,16.70
2023-05-16T09:27:53.599Z,16.60
2023-05-16T09:30:27.375Z,16.50
2023-05-16T09:32:54.493Z,16.80
2023-05-16T09:35:39.097Z,16.60
2023-05-16T09:38:17.229Z,16.50
2023-05-16T09:40:45.298Z,16.90
2023-05-16T09:43:16.639Z,16.90
2023-05-16T09:45:48.383Z,16.90
2023-05-16T09:48:16.705Z,16.80
2023-05-16T09:50:53.128Z,17.00
2023-05-16T09:53:31.447Z,16.90
2023-05-16T09:56:05.514Z,17.80
2023-05-16T09:58:37.910Z,16.90
2023-05-16T10:01:05.958Z,16.70
2023-05-16T10:03:35.345Z,16.70
2023-05-16T10:06:03.520Z,16.80
2023-05-16T10:08:36.270Z,17.00
2023-05-16T10:11:05.049Z,17.50
2023-05-16T10:13:33.653Z,17.80
2023-05-16T10:16:10.040Z,17.70
2023-05-16T10:18:38.676Z,17.40
2023-05-16T10:21:10.437Z,17.50
2023-05-16T10:23:42.494Z,17.60
2023-05-16T10:26:11.200Z,17.60
2023-05-16T10:28:38.154Z,17.60
2023-05-16T10:31:07.034Z,17.70
2023-05-16T10:33:35.657Z,17.90
2023-05-16T10:36:05.249Z,18.10
2023-05-16T10:38:33.528Z,18.00
2023-05-16T10:41:00.481Z,17.90
2023-05-16T10:43:30.745Z,18.60
2023-05-16T10:46:09.880Z,18.50
2023-05-16T10:48:39.017Z,18.80
2023-05-16T10:51:24.206Z,18.80
2023-05-16T10:53:55.072Z,18.50
2023-05-16T10:56:27.019Z,18.40
2023-05-16T10:58:55.671Z,18.20
2023-05-16T11:01:24.568Z,18.10
2023-05-16T11:03:58.053Z,18.50
2023-05-16T11:06:32.736Z,18.50
2023-05-16T11:09:10.144Z,18.70
2023-05-16T11:11:52.601Z,20.10
2023-05-16T11:14:23.355Z,19.60
2023-05-16T11:17:16.152Z,19.60
2023-05-16T11:19:49.242Z,19.60
2023-05-16T11:22:18.972Z,19.40
2023-05-16T11:24:54.545Z,19.90
2023-05-16T11:27:34.529Z,19.30
2023-05-16T11:30:12.808Z,19.10
2023-05-16T11:32:42.822Z,18.90
2023-05-16T11:35:15.379Z,19.30
2023-05-16T11:37:43.010Z,18.20
2023-05-16T11:40:12.124Z,18.10
2023-05-16T11:42:43.531Z,17.60
2023-05-16T11:45:19.537Z,17.50
2023-05-16T11:47:48.410Z,17.50
2023-05-16T11:50:23.661Z,17.40
2023-05-16T11:52:57.129Z,17.60
2023-05-16T11:55:40.217Z,17.70
2023-05-16T11:58:11.799Z,17.50
2023-05-16T12:00:48.560Z,17.40
2023-05-16T12:03:15.738Z,17.30
2023-05-16T12:05:53.473Z,17.20
2023-05-16T12:08:22.027Z,17.00
2023-05-16T12:10:50.390Z,17.10
2023-05-16T12:13:20.433Z,17.20
2023-05-16T12:15:48.395Z,18.00
2023-05-16T12:18:16.492Z,17.60
2023-05-16T12:20:44.784Z,17.90
2023-05-16T12:23:14.793Z,18.00
2023-05-16T12:25:46.596Z,18.10
2023-05-16T12:28:15.114Z,18.20
2023-05-16T12:30:43.735Z,18.00
2023-05-16T12:33:13.022Z,17.80
2023-05-16T12:35:42.129Z,17.50
2023-05-16T12:38:10.965Z,17.60
2023-05-16T12:40:39.378Z,17.40
2023-05-16T12:43:22.792Z,17.30
2023-05-16T12:45:51.601Z,17.40
2023-05-16T12:48:18.773Z,17.30
2023-05-16T12:50:48.818Z,17.50
2023-05-16T12:53:17.351Z,17.70
2023-05-16T12:55:44.908Z,18.30
2023-05-16T12:58:12.496Z,19.10
2023-05-16T13:00:42.259Z,19.30
2023-05-16T13:03:09.211Z,18.60
2023-05-16T13:05:36.432Z,18.50
2023-05-16T13:08:03.946Z,18.30
2023-05-16T13:10:31.016Z,18.30
2023-05-16T13:12:59.882Z,18.00
2023-05-16T13:15:27.431Z,17.80
2023-05-16T13:17:54.781Z,17.70
2023-05-16T13:20:21.655Z,17.80
2023-05-16T13:22:48.820Z,17.90
2023-05-16T13:25:16.086Z,17.90
2023-05-16T13:27:42.949Z,18.70
2023-05-16T13:30:10.017Z,17.90
2023-05-16T13:32:36.884Z,17.80
2023-05-16T13:35:04.219Z,18.70
2023-05-16T13:37:31.399Z,17.50
2023-05-16T13:39:58.757Z,17.30
2023-05-16T13:42:27.981Z,17.20
2023-05-16T13:44:54.842Z,17.10
2023-05-16T13:47:21.898Z,17.10
2023-05-16T13:49:48.888Z,17.10
2023-05-16T13:52:15.671Z,17.70
2023-05-16T13:54:42.578Z,18.70
2023-05-16T13:57:09.426Z,18.60
2023-05-16T14:02:06.255Z,18.40
2023-05-16T14:04:33.053Z,17.40
2023-05-16T14:06:59.881Z,17.60
2023-05-16T14:09:26.672Z,17.30
2023-05-16T14:11:53.477Z,17.90
2023-05-16T14:14:20.298Z,17.20
2023-05-16T14:16:47.472Z,17.10
2023-05-16T14:19:17.312Z,17.10
2023-05-16T14:21:45.849Z,17.60
2023-05-16T14:24:12.669Z,17.00
2023-05-16T14:26:39.447Z,17.10
2023-05-16T14:29:06.314Z,17.10
2023-05-16T14:31:33.346Z,17.90
2023-05-16T14:34:00.135Z,17.30
2023-05-16T14:36:26.904Z,17.20
2023-05-16T14:38:53.805Z,18.10
2023-05-16T14:41:21.179Z,17.50
2023-05-16T14:43:47.997Z,17.40
2023-05-16T14:46:15.024Z,17.20
2023-05-16T14:48:41.770Z,17.40
2023-05-16T14:51:08.643Z,18.20
2023-05-16T14:53:35.527Z,17.10
2023-05-16T14:56:03.749Z,17.20
2023-05-16T14:58:31.178Z,17.00
2023-05-16T15:00:58.174Z,16.90
2023-05-16T15:03:25.033Z,17.00
2023-05-16T15:05:52.731Z,17.20
2023-05-16T15:08:19.519Z,17.20
2023-05-16T15:10:46.334Z,17.30
2023-05-16T15:13:13.128Z,17.70
2023-05-16T15:15:40.111Z,17.60
2023-05-16T15:18:06.890Z,17.90
2023-05-16T15:20:33.718Z,18.20
2023-05-16T15:23:00.559Z,18.40
2023-05-16T15:25:27.637Z,18.80
2023-05-16T15:27:55.204Z,19.00
2023-05-16T15:30:22.346Z,18.80
2023-05-16T15:32:49.123Z,19.10
2023-05-16T15:35:16.259Z,18.70
2023-05-16T15:37:43.683Z,18.70
2023-05-16T15:40:11.281Z,18.90
2023-05-16T15:42:38.156Z,18.60
2023-05-16T15:45:05.342Z,18.40
2023-05-16T15:47:32.618Z,18.40
2023-05-16T15:49:59.558Z,18.20
2023-05-16T15:52:26.423Z,19.00
2023-05-16T15:54:53.420Z,18.70
2023-05-16T15:57:20.339Z,17.60
2023-05-16T15:59:47.142Z,17.50
2023-05-16T16:02:13.927Z,17.50
2023-05-16T16:04:40.761Z,17.30
2023-05-16T16:07:07.556Z,17.10
2023-05-16T16:09:34.395Z,17.10
2023-05-16T16:12:01.221Z,16.90
2023-05-16T16:14:28.032Z,16.70
2023-05-16T16:16:54.822Z,16.70
2023-05-16T16:19:21.722Z,16.70
2023-05-16T16:21:48.847Z,16.70
2023-05-16T16:24:15.897Z,16.90
2023-05-16T16:26:43.129Z,16.70
2023-05-16T16:29:10.065Z,16.60
2023-05-16T16:31:36.867Z,17.00
2023-05-16T16:34:03.653Z,16.50
2023-05-16T16:36:31.730Z,16.60
2023-05-16T16:38:59.974Z,16.50
2023-05-16T16:41:26.758Z,16.60
2023-05-16T16:43:53.527Z,16.60
2023-05-16T16:46:20.681Z,16.60
2023-05-16T16:48:48.102Z,16.50
2023-05-16T16:51:15.091Z,16.50
2023-05-16T16:53:42.677Z,16.60
2023-05-16T16:56:09.430Z,16.60
2023-05-16T16:58:36.217Z,16.90
2023-05-16T17:01:03.949Z,16.90
2023-05-16T17:03:30.905Z,17.00
2023-05-16T17:05:57.822Z,17.00
2023-05-16T17:08:24.633Z,17.80
2023-05-16T17:10:51.553Z,17.00
2023-05-16T17:13:18.410Z,17.00
2023-05-16T17:15:45.521Z,16.80
2023-05-16T17:18:12.440Z,16.80
2023-05-16T17:20:39.411Z,16.70
2023-05-16T17:23:06.272Z,16.50
2023-05-16T17:25:32.996Z,16.60
2023-05-16T17:27:59.817Z,16.60
2023-05-16T17:30:26.791Z,16.60
2023-05-16T17:32:54.150Z,16.50
2023-05-16T17:35:21.073Z,16.50
2023-05-16T17:37:47.930Z,16.60
2023-05-16T17:40:17.117Z,16.60
2023-05-16T17:42:45.408Z,16.50
2023-05-16T17:45:13.837Z,16.50
2023-05-16T17:47:41.176Z,17.30
2023-05-16T17:50:10.232Z,16.50
2023-05-16T17:52:39.345Z,16.50
2023-05-16T17:55:08.669Z,16.50
2023-05-16T17:57:35.526Z,16.50
2023-05-16T18:00:05.055Z,16.80
2023-05-16T18:02:32.682Z,16.60
2023-05-16T18:04:59.620Z,16.60
2023-05-16T18:07:27.078Z,16.60
2023-05-16T18:09:54.282Z,16.60
2023-05-16T18:12:21.353Z,16.50
2023-05-16T18:14:48.150Z,16.70
2023-05-16T18:17:15.194Z,16.80
2023-05-16T18:19:42.140Z,16.80
2023-05-16T18:22:11.909Z,16.60
2023-05-16T18:24:39.717Z,16.70
2023-05-16T18:27:07.096Z,16.80
2023-05-16T18:29:34.395Z,16.70
2023-05-16T18:32:01.367Z,16.60
2023-05-16T18:34:28.315Z,16.90
2023-05-16T18:36:55.145Z,16.70
2023-05-16T18:39:22.053Z,16.50
2023-05-16T18:41:48.956Z,16.50
2023-05-16T18:44:17.256Z,16.40
2023-05-16T18:46:46.014Z,16.40
2023-05-16T18:49:13.471Z,16.30
2023-05-16T18:51:40.459Z,16.10
2023-05-16T18:54:07.339Z,16.80
2023-05-16T18:56:34.351Z,16.70
2023-05-16T18:59:01.219Z,15.90
2023-05-16T19:01:28.590Z,16.00
2023-05-16T19:03:55.911Z,16.00
2023-05-16T19:06:23.201Z,15.80
2023-05-16T19:08:50.083Z,15.80
2023-05-16T19:11:17.954Z,15.70
2023-05-16T19:13:45.817Z,15.70
2023-05-16T19:16:12.824Z,15.80
2023-05-16T19:18:39.882Z,15.70
2023-05-16T19:21:13.253Z,15.60
2023-05-16T19:23:40.493Z,15.40
2023-05-16T19:26:07.246Z,15.40
2023-05-16T19:28:34.729Z,15.40
2023-05-16T19:31:01.525Z,15.20
2023-05-16T19:33:28.329Z,15.10
2023-05-16T19:35:57.649Z,15.30
2023-05-16T19:38:25.678Z,15.10
2023-05-16T19:40:53.271Z,15.60
2023-05-16T19:43:20.123Z,15.00
2023-05-16T19:45:47.779Z,14.90
2023-05-16T19:48:14.667Z,15.50
2023-05-16T19:50:41.535Z,15.10
2023-05-16T19:53:08.370Z,14.90
2023-05-16T19:55:38.021Z,15.10
2023-05-16T19:58:05.143Z,14.90
2023-05-16T20:00:32.165Z,14.90
2023-05-16T20:02:59.065Z,15.10
2023-05-16T20:05:26.896Z,15.20
2023-05-16T20:07:55.210Z,15.00
2023-05-16T20:10:22.281Z,14.90
2023-05-16T20:12:49.246Z,14.90
2023-05-16T20:15:16.195Z,14.90
2023-05-16T20:17:43.089Z,15.80
2023-05-16T20:20:11.203Z,15.00
2023-05-16T20:22:41.800Z,15.10
2023-05-16T20:25:10.375Z,15.10
2023-05-16T20:27:37.772Z,15.80
2023-05-16T20:30:06.788Z,15.00
2023-05-16T20:32:34.123Z,15.10
2023-05-16T20:35:01.724Z,15.10
2023-05-16T20:37:28.547Z,15.00
2023-05-16T20:39:55.699Z,14.80
2023-05-16T20:42:22.487Z,14.90
2023-05-16T20:44:49.280Z,14.80
2023-05-16T20:47:17.024Z,14.80
2023-05-16T20:49:44.288Z,14.90
2023-05-16T20:52:11.273Z,14.80
2023-05-16T20:54:38.133Z,14.80
2023-05-16T20:57:05.395Z,15.10
2023-05-16T20:59:32.354Z,14.60
2023-05-16T21:01:59.351Z,14.70
2023-05-16T21:04:26.325Z,14.60
2023-05-16T21:06:53.260Z,14.50
2023-05-16T21:09:20.149Z,14.50
2023-05-16T21:11:46.943Z,14.50
2023-05-16T21:14:14.616Z,14.60
2023-05-16T21:16:41.747Z,14.50
2023-05-16T21:19:08.767Z,14.50
2023-05-16T21:21:35.821Z,14.40
2023-05-16T21:24:03.630Z,14.30
2023-05-16T21:26:30.538Z,14.30
2023-05-16T21:28:57.424Z,14.40
2023-05-16T21:31:24.303Z,14.40
2023-05-16T21:33:52.256Z,14.30
2023-05-16T21:36:20.164Z,14.30
2023-05-16T21:38:47.461Z,14.40
2023-05-16T21:41:14.549Z,14.20
2023-05-16T21:43:41.528Z,14.30
2023-05-16T21:46:08.396Z,14.20
2023-05-16T21:48:35.472Z,14.30
2023-05-16T21:51:03.284Z,14.20
2023-05-16T21:53:30.167Z,14.10
2023-05-16T21:55:56.936Z,14.10
2023-05-16T21:58:25.153Z,14.00
2023-05-16T22:00:52.021Z,14.50
2023-05-16T22:03:20.959Z,14.20
2023-05-16T22:05:48.139Z,14.10
2023-05-16T22:08:15.034Z,14.00
2023-05-16T22:10:41.805Z,13.90
2023-05-16T22:13:08.580Z,14.00
2023-05-16T22:15:35.428Z,14.00
2023-05-16T22:18:02.424Z,13.90
2023-05-16T22:20:29.627Z,14.00
2023-05-16T22:22:56.604Z,13.90
2023-05-16T22:25:23.530Z,13.80
2023-05-16T22:27:50.531Z,14.00
2023-05-16T22:30:17.324Z,14.10
2023-05-16T22:32:45.806Z,13.90
2023-05-16T22:35:13.855Z,13.90
2023-05-16T22:37:40.741Z,14.20
2023-05-16T22:40:08.498Z,13.90
2023-05-16T22:42:35.462Z,13.90
2023-05-16T22:45:02.760Z,13.90
2023-05-16T22:47:29.567Z,14.00
2023-05-16T22:49:56.443Z,13.80
2023-05-16T22:52:23.279Z,13.80
2023-05-16T22:54:50.198Z,13.80
2023-05-16T22:57:17.040Z,13.80
2023-05-16T22:59:43.767Z,13.80
2023-05-16T23:02:10.576Z,13.70
2023-05-16T23:04:37.388Z,13.90
2023-05-16T23:07:04.290Z,13.50
2023-05-16T23:09:31.006Z,13.60
2023-05-16T23:11:57.776Z,13.60
2023-05-16T23:14:26.025Z,14.10
2023-05-16T23:16:52.827Z,13.50
2023-05-16T23:19:19.781Z,13.60
2023-05-16T23:21:46.854Z,13.50
2023-05-16T23:24:13.616Z,11.40
2023-05-16T23:26:40.376Z,13.50
2023-05-16T23:29:07.279Z,13.50
2023-05-16T23:31:34.114Z,13.40
2023-05-16T23:34:01.064Z,13.30
2023-05-16T23:36:27.878Z,13.40
2023-05-16T23:38:54.732Z,13.30
2023-05-16T23:41:21.521Z,13.20
2023-05-16T23:43:48.297Z,13.10
2023-05-16T23:46:15.310Z,13.10
2023-05-16T23:48:42.066Z,13.10
2023-05-16T23:51:08.997Z,13.10
2023-05-16T23:53:35.840Z,13.00
2023-05-16T23:56:02.657Z,13.20
2023-05-16T23:58:29.532Z,13.00
